createdAt,value
2019-01-20T09:37:28.069Z,17.57
2019-01-20T09:39:56.178Z,16.73
2019-01-20T09:42:28.647Z,16.62
2019-01-20T09:45:00.089Z,16.70
2019-01-20T09:49:55.729Z,16.57
2019-01-20T09:52:24.911Z,18.10
2019-01-20T09:54:52.987Z,16.03
2019-01-20T09:57:21.094Z,16.85
2019-01-20T09:59:49.662Z,15.95
2019-01-20T10:02:17.749Z,16.95
2019-01-20T10:04:46.161Z,15.50
2019-01-20T10:07:14.335Z,17.55
2019-01-20T10:09:42.433Z,17.32
2019-01-20T10:12:10.559Z,15.95
2019-01-20T10:14:38.651Z,16.12
2019-01-20T10:17:07.409Z,17.67
2019-01-20T10:19:35.520Z,15.75
2019-01-20T10:22:03.988Z,15.60
2019-01-20T10:24:32.119Z,15.83
2019-01-20T10:27:01.246Z,17.15
2019-01-20T10:29:31.454Z,16.82
2019-01-20T10:32:02.626Z,17.07
2019-01-20T10:34:35.686Z,15.00
2019-01-20T10:37:04.191Z,15.23
2019-01-20T10:39:33.988Z,16.02
2019-01-20T10:42:06.505Z,15.75
2019-01-20T10:44:34.640Z,15.80
2019-01-20T10:47:07.392Z,16.65
2019-01-20T10:49:35.471Z,15.53
2019-01-20T10:52:04.414Z,15.10
2019-01-20T10:54:35.300Z,16.07
2019-01-20T10:57:03.441Z,15.78
2019-01-20T10:59:31.584Z,16.52
2019-01-20T11:01:59.710Z,15.20
2019-01-20T11:04:30.346Z,17.15
2019-01-20T11:06:59.776Z,17.00
2019-01-20T11:09:29.578Z,16.35
2019-01-20T11:11:57.678Z,15.10
2019-01-20T11:14:25.810Z,17.65
2019-01-20T11:16:53.907Z,15.40
2019-01-20T11:19:23.791Z,14.83
2019-01-20T11:21:51.897Z,14.65
2019-01-20T11:24:20.010Z,14.73
2019-01-20T11:26:48.114Z,14.43
2019-01-20T11:29:17.842Z,13.20
2019-01-20T11:31:45.935Z,13.68
2019-01-20T11:34:14.044Z,13.45
2019-01-20T11:36:46.902Z,13.15
2019-01-20T11:39:14.732Z,11.95
2019-01-20T11:41:42.827Z,13.30
2019-01-20T11:44:16.861Z,13.18
2019-01-20T11:46:47.713Z,12.78
2019-01-20T11:49:15.825Z,12.95
2019-01-20T11:51:43.985Z,13.68
2019-01-20T11:54:13.754Z,13.68
2019-01-20T11:56:41.920Z,14.58
2019-01-20T11:59:17.336Z,14.47
2019-01-20T12:01:45.449Z,14.73
2019-01-20T12:04:13.547Z,14.58
2019-01-20T12:06:41.922Z,14.10
2019-01-20T12:09:10.477Z,14.20
2019-01-20T12:11:38.644Z,15.08
2019-01-20T12:14:06.824Z,14.13
2019-01-20T12:16:37.839Z,14.73
2019-01-20T12:19:06.007Z,14.78
2019-01-20T12:21:34.226Z,14.40
2019-01-20T12:24:02.393Z,13.88
2019-01-20T12:26:30.481Z,14.85
2019-01-20T12:29:03.151Z,12.85
2019-01-20T12:31:33.973Z,14.43
2019-01-20T12:34:03.581Z,14.30
2019-01-20T12:36:33.309Z,14.33
2019-01-20T12:39:01.419Z,15.08
2019-01-20T12:41:32.961Z,14.33
2019-01-20T12:44:01.068Z,13.43
2019-01-20T12:46:31.053Z,12.63
2019-01-20T12:48:59.223Z,14.40
2019-01-20T12:51:28.660Z,13.30
2019-01-20T12:53:57.050Z,11.93
2019-01-20T12:56:25.195Z,13.62
2019-01-20T12:58:53.281Z,10.88
2019-01-20T13:01:21.377Z,12.33
2019-01-20T13:03:51.325Z,13.05
2019-01-20T13:06:19.433Z,11.78
2019-01-20T13:08:47.534Z,11.88
2019-01-20T13:11:15.672Z,12.45
2019-01-20T13:13:51.066Z,12.33
2019-01-20T13:16:19.166Z,11.60
2019-01-20T13:18:47.276Z,10.40
2019-01-20T13:21:20.104Z,9.38
2019-01-20T13:23:48.195Z,9.03
2019-01-20T13:26:20.702Z,10.78
2019-01-20T13:28:48.794Z,11.13
2019-01-20T13:31:21.208Z,12.25
2019-01-20T13:33:54.106Z,11.55
2019-01-20T13:36:22.252Z,10.38
2019-01-20T13:38:50.354Z,10.10
2019-01-20T13:41:21.930Z,11.12
2019-01-20T13:43:50.018Z,11.83
2019-01-20T13:46:18.130Z,11.25
2019-01-20T13:48:46.279Z,11.65
2019-01-20T13:51:16.188Z,10.72
2019-01-20T13:53:47.296Z,12.10
2019-01-20T13:56:16.972Z,10.15
2019-01-20T13:58:45.325Z,10.20
2019-01-20T14:01:13.935Z,12.30
2019-01-20T14:03:42.068Z,11.38
2019-01-20T14:06:11.809Z,11.73
2019-01-20T14:08:44.360Z,11.28
2019-01-20T14:11:10.177Z,10.70
2019-01-20T14:13:38.278Z,12.55
2019-01-20T14:16:06.386Z,11.50
2019-01-20T14:18:34.545Z,12.05
2019-01-20T14:21:02.669Z,13.18
2019-01-20T14:23:33.520Z,10.98
2019-01-20T14:26:01.328Z,11.20
2019-01-20T14:28:29.481Z,11.63
2019-01-20T14:31:01.740Z,12.65
2019-01-20T14:33:29.807Z,11.28
2019-01-20T14:35:57.914Z,11.12
2019-01-20T14:38:28.332Z,12.07
2019-01-20T14:41:02.229Z,12.40
2019-01-20T14:43:30.347Z,11.95
2019-01-20T14:46:00.097Z,11.55
2019-01-20T14:48:28.243Z,12.03
2019-01-20T14:50:56.349Z,11.25
2019-01-20T14:53:24.447Z,11.83
2019-01-20T14:55:54.191Z,11.53
2019-01-20T14:58:26.603Z,10.03
2019-01-20T15:00:55.834Z,10.80
2019-01-20T15:03:24.434Z,11.68
2019-01-20T15:06:02.785Z,12.73
2019-01-20T15:08:34.813Z,11.90
2019-01-20T15:11:06.471Z,11.83
2019-01-20T15:13:36.175Z,11.20
2019-01-20T15:16:04.302Z,12.80
2019-01-20T15:18:32.459Z,11.55
2019-01-20T15:21:00.561Z,13.08
2019-01-20T15:23:28.679Z,26.23
2019-01-20T15:25:58.348Z,20.23
2019-01-20T15:28:28.105Z,16.48
2019-01-20T15:30:59.666Z,16.00
2019-01-20T15:33:27.753Z,13.48
2019-01-20T15:35:55.861Z,12.50
2019-01-20T15:38:32.408Z,13.72
2019-01-20T15:41:00.505Z,14.00
2019-01-20T15:43:32.230Z,14.33
2019-01-20T15:46:00.377Z,12.93
2019-01-20T15:48:33.357Z,13.25
2019-01-20T15:51:01.498Z,14.50
2019-01-20T15:53:32.684Z,15.32
2019-01-20T15:56:01.725Z,13.53
2019-01-20T15:58:32.474Z,13.90
2019-01-20T16:01:00.646Z,13.98
2019-01-20T16:03:35.098Z,14.40
2019-01-20T16:06:03.260Z,14.20
2019-01-20T16:08:31.371Z,16.15
2019-01-20T16:11:01.283Z,12.63
2019-01-20T16:13:29.457Z,12.10
2019-01-20T16:15:59.138Z,13.98
2019-01-20T16:18:27.374Z,13.30
2019-01-20T16:20:55.495Z,13.40
2019-01-20T16:23:23.794Z,12.85
2019-01-20T16:25:51.904Z,12.73
2019-01-20T16:28:21.730Z,12.90
2019-01-20T16:30:49.892Z,13.13
2019-01-20T16:33:24.892Z,13.88
2019-01-20T16:35:52.226Z,12.70
2019-01-20T16:38:21.418Z,12.95
2019-01-20T16:40:49.535Z,11.70
2019-01-20T16:43:19.073Z,12.70
2019-01-20T16:45:47.319Z,12.88
2019-01-20T16:48:15.440Z,12.45
2019-01-20T16:50:43.616Z,13.18
2019-01-20T16:53:11.707Z,12.25
2019-01-20T16:55:41.054Z,11.97
2019-01-20T16:58:09.174Z,14.15
2019-01-20T17:00:38.265Z,12.20
2019-01-20T17:03:06.469Z,14.00
2019-01-20T17:05:37.646Z,12.70
2019-01-20T17:08:05.817Z,13.48
2019-01-20T17:10:41.255Z,13.78
2019-01-20T17:13:09.404Z,13.32
2019-01-20T17:15:42.018Z,12.13
2019-01-20T17:18:11.768Z,13.48
2019-01-20T17:20:39.884Z,13.03
2019-01-20T17:23:07.981Z,14.58
2019-01-20T17:25:36.842Z,12.53
2019-01-20T17:28:06.605Z,12.58
2019-01-20T17:30:36.923Z,12.68
2019-01-20T17:33:06.207Z,14.47
2019-01-20T17:35:34.225Z,15.60
2019-01-20T17:38:04.549Z,14.73
2019-01-20T17:40:32.657Z,14.33
2019-01-20T17:43:00.863Z,14.33
2019-01-20T17:45:33.271Z,15.38
2019-01-20T17:48:02.509Z,14.07
2019-01-20T17:50:31.944Z,14.43
2019-01-20T17:53:02.461Z,15.65
2019-01-20T17:55:30.287Z,14.70
2019-01-20T17:58:01.387Z,15.05
2019-01-20T18:00:33.832Z,15.88
2019-01-20T18:03:02.247Z,16.37
2019-01-20T18:05:31.476Z,15.90
2019-01-20T18:07:59.492Z,16.90
2019-01-20T18:10:27.614Z,17.52
2019-01-20T18:12:57.030Z,16.73
2019-01-20T18:15:27.425Z,15.83
2019-01-20T18:18:00.104Z,17.20
2019-01-20T18:20:29.362Z,15.70
2019-01-20T18:22:57.410Z,16.00
2019-01-20T18:25:25.544Z,17.95
2019-01-20T18:27:53.726Z,16.25
2019-01-20T18:30:22.800Z,17.82
2019-01-20T18:32:56.660Z,16.10
2019-01-20T18:35:26.538Z,17.98
2019-01-20T18:37:54.647Z,17.85
2019-01-20T18:40:23.776Z,17.73
2019-01-20T18:42:53.506Z,18.92
2019-01-20T18:45:33.524Z,16.85
2019-01-20T18:48:02.643Z,18.82
2019-01-20T18:50:34.882Z,19.60
2019-01-20T18:53:04.625Z,19.62
2019-01-20T18:55:33.068Z,17.50
2019-01-20T18:58:01.164Z,18.90
2019-01-20T19:00:30.930Z,19.40
2019-01-20T19:02:59.104Z,20.37
2019-01-20T19:05:27.222Z,33.05
2019-01-20T19:07:55.722Z,25.08
2019-01-20T19:10:25.822Z,19.52
2019-01-20T19:12:56.217Z,21.40
2019-01-20T19:15:24.334Z,19.60
2019-01-20T19:17:52.450Z,21.33
2019-01-20T19:20:21.831Z,20.75
2019-01-20T19:22:50.857Z,20.48
2019-01-20T19:25:18.992Z,22.40
2019-01-20T19:27:47.104Z,19.35
2019-01-20T19:30:16.479Z,23.00
2019-01-20T19:32:44.691Z,21.00
2019-01-20T19:35:13.674Z,22.63
2019-01-20T19:41:08.844Z,22.40
2019-01-20T19:43:36.952Z,24.20
2019-01-20T19:46:05.150Z,22.17
2019-01-20T19:48:34.421Z,20.50
2019-01-20T19:51:02.402Z,21.37
2019-01-20T19:53:33.613Z,21.02
2019-01-20T19:56:01.747Z,20.57
2019-01-20T19:58:29.963Z,21.52
2019-01-20T20:00:59.750Z,20.37
2019-01-20T20:03:27.861Z,21.15
2019-01-20T20:05:58.699Z,21.35
2019-01-20T20:08:26.846Z,20.40
2019-01-20T20:10:55.087Z,22.48
2019-01-20T20:13:23.186Z,21.70
2019-01-20T20:15:54.813Z,22.45
2019-01-20T20:18:22.905Z,24.72
2019-01-20T20:20:53.823Z,21.27
2019-01-20T20:23:21.893Z,20.88
2019-01-20T20:25:50.007Z,20.35
2019-01-20T20:28:20.242Z,22.48
2019-01-20T20:30:50.341Z,21.52
2019-01-20T20:35:47.403Z,20.70
2019-01-20T20:38:15.577Z,21.73
2019-01-20T20:40:43.670Z,21.30
2019-01-20T20:43:11.785Z,23.10
2019-01-20T20:45:39.895Z,22.13
2019-01-20T20:48:08.025Z,23.67
2019-01-20T20:50:36.181Z,23.15
2019-01-20T20:53:04.282Z,24.77
2019-01-20T20:55:32.392Z,21.48
2019-01-20T20:58:02.313Z,23.60
2019-01-20T21:00:32.328Z,21.68
2019-01-20T21:03:02.093Z,23.50
2019-01-20T21:05:34.910Z,24.02
2019-01-20T21:08:03.093Z,25.05
2019-01-20T21:10:31.207Z,24.67
2019-01-20T21:13:01.018Z,23.95
2019-01-20T21:15:29.120Z,22.48
2019-01-20T21:17:57.242Z,24.57
2019-01-20T21:20:25.360Z,24.40
2019-01-20T21:22:55.149Z,25.08
2019-01-20T21:25:26.169Z,25.15
2019-01-20T21:27:54.294Z,25.05
2019-01-20T21:30:29.338Z,26.40
2019-01-20T21:32:57.528Z,24.52
2019-01-20T21:35:25.618Z,26.02
2019-01-20T21:37:53.716Z,24.63
2019-01-20T21:40:24.020Z,23.52
2019-01-20T21:42:51.794Z,25.35
2019-01-20T21:45:21.536Z,23.38
2019-01-20T21:47:51.258Z,25.92
2019-01-20T21:50:23.254Z,24.10
2019-01-20T21:52:52.158Z,24.95
2019-01-20T21:55:20.270Z,25.20
2019-01-20T21:57:48.371Z,25.05
2019-01-20T22:00:20.810Z,25.72
2019-01-20T22:02:50.798Z,25.35
2019-01-20T22:05:18.913Z,25.35
2019-01-20T22:07:47.086Z,24.32
2019-01-20T22:10:21.877Z,26.65
2019-01-20T22:12:51.616Z,22.17
2019-01-20T22:15:22.495Z,26.30
2019-01-20T22:17:50.630Z,26.90
2019-01-20T22:20:20.190Z,27.48
2019-01-20T22:22:48.388Z,25.43
2019-01-20T22:25:17.801Z,24.10
2019-01-20T22:27:48.065Z,26.55
2019-01-20T22:30:20.733Z,24.10
2019-01-20T22:32:48.836Z,24.57
2019-01-20T22:35:17.157Z,25.23
2019-01-20T22:37:45.270Z,26.70
2019-01-20T22:40:14.389Z,24.30
2019-01-20T22:42:42.458Z,25.50
2019-01-20T22:45:12.156Z,23.60
2019-01-20T22:47:43.153Z,26.42
2019-01-20T22:50:12.089Z,23.52
2019-01-20T22:52:40.294Z,25.72
2019-01-20T22:55:09.859Z,25.75
2019-01-20T22:57:38.705Z,27.73
2019-01-20T23:00:11.385Z,24.70
2019-01-20T23:02:39.484Z,26.17
2019-01-20T23:05:10.650Z,27.65
2019-01-20T23:07:41.523Z,31.68
2019-01-20T23:10:11.399Z,32.38
2019-01-20T23:12:39.794Z,28.52
2019-01-20T23:15:09.163Z,27.77
2019-01-20T23:17:38.022Z,27.77
2019-01-20T23:20:10.475Z,27.58
2019-01-20T23:22:38.613Z,28.07
2019-01-20T23:25:06.779Z,26.10
2019-01-20T23:27:37.443Z,27.22
2019-01-20T23:30:07.459Z,26.97
2019-01-20T23:32:39.909Z,26.40
2019-01-20T23:35:08.066Z,25.75
2019-01-20T23:37:48.588Z,26.10
2019-01-20T23:40:18.079Z,23.73
2019-01-20T23:42:46.248Z,25.57
2019-01-20T23:45:15.982Z,25.48
2019-01-20T23:47:44.108Z,26.65
2019-01-20T23:50:13.139Z,27.65
2019-01-20T23:52:41.243Z,27.67
2019-01-20T23:55:10.669Z,26.57
2019-01-20T23:57:38.777Z,30.60
